sensor_id;sensor_type;location;lat;lon;timestamp;temperature;humidity
8676;DHT22;4375;52.486;13.424;2023-02-01T00:01:56;4.80;99.90
8676;DHT22;4375;52.486;13.424;2023-02-01T00:04:22;4.80;99.90
8676;DHT22;4375;52.486;13.424;2023-02-01T00:06:48;4.90;99.90
8676;DHT22;4375;52.486;13.424;2023-02-01T00:09:13;4.90;99.90
8676;DHT22;4375;52.486;13.424;2023-02-01T00:11:39;5.00;99.90
8676;DHT22;4375;52.486;13.424;2023-02-01T00:14:05;5.00;99.90
8676;DHT22;4375;52.486;13.424;2023-02-01T00:16:31;5.00;99.90
8676;DHT22;4375;52.486;13.424;2023-02-01T00:19:09;5.00;99.90
8676;DHT22;4375;52.486;13.424;2023-02-01T00:21:35;5.00;99.90
8676;DHT22;4375;52.486;13.424;2023-02-01T00:24:01;5.00;99.90
8676;DHT22;4375;52.486;13.424;2023-02-01T00:26:38;5.00;99.90
8676;DHT22;4375;52.486;13.424;2023-02-01T00:29:08;4.90;99.90
8676;DHT22;4375;52.486;13.424;2023-02-01T00:31:40;5.00;99.90
8676;DHT22;4375;52.486;13.424;2023-02-01T00:34:13;5.00;99.90
8676;DHT22;4375;52.486;13.424;2023-02-01T00:37:04;5.00;99.90
8676;DHT22;4375;52.486;13.424;2023-02-01T00:39:37;5.00;99.90
8676;DHT22;4375;52.486;13.424;2023-02-01T00:42:03;4.90;99.90
8676;DHT22;4375;52.486;13.424;2023-02-01T00:44:29;4.90;99.90
8676;DHT22;4375;52.486;13.424;2023-02-01T00:46:58;4.80;99.90
8676;DHT22;4375;52.486;13.424;2023-02-01T00:49:24;4.80;99.90
8676;DHT22;4375;52.486;13.424;2023-02-01T00:51:50;4.80;99.90
8676;DHT22;4375;52.486;13.424;2023-02-01T00:54:15;4.80;99.90
8676;DHT22;4375;52.486;13.424;2023-02-01T00:56:41;4.70;99.90
8676;DHT22;4375;52.486;13.424;2023-02-01T00:59:11;4.70;99.90
8676;DHT22;4375;52.486;13.424;2023-02-01T01:01:36;4.70;99.90
8676;DHT22;4375;52.486;13.424;2023-02-01T01:04:02;4.80;99.90
8676;DHT22;4375;52.486;13.424;2023-02-01T01:06:32;4.70;99.90
8676;DHT22;4375;52.486;13.424;2023-02-01T01:09:00;4.70;99.90
8676;DHT22;4375;52.486;13.424;2023-02-01T01:11:28;4.70;99.90
8676;DHT22;4375;52.486;13.424;2023-02-01T01:13:56;4.60;99.90
8676;DHT22;4375;52.486;13.424;2023-02-01T01:16:24;4.60;99.90
8676;DHT22;4375;52.486;13.424;2023-02-01T01:18:51;4.60;99.90
8676;DHT22;4375;52.486;13.424;2023-02-01T01:21:17;4.60;99.90
8676;DHT22;4375;52.486;13.424;2023-02-01T01:23:44;4.50;99.90
8676;DHT22;4375;52.486;13.424;2023-02-01T01:26:15;4.50;99.90
8676;DHT22;4375;52.486;13.424;2023-02-01T01:28:41;4.50;99.90
8676;DHT22;4375;52.486;13.424;2023-02-01T01:31:09;4.50;99.90
8676;DHT22;4375;52.486;13.424;2023-02-01T01:33:35;4.60;99.90
8676;DHT22;4375;52.486;13.424;2023-02-01T01:36:01;4.50;99.90
8676;DHT22;4375;52.486;13.424;2023-02-01T01:38:27;4.50;99.90
8676;DHT22;4375;52.486;13.424;2023-02-01T01:40:52;4.60;99.90
8676;DHT22;4375;52.486;13.424;2023-02-01T01:43:19;4.60;99.90
8676;DHT22;4375;52.486;13.424;2023-02-01T01:45:48;4.60;99.90
8676;DHT22;4375;52.486;13.424;2023-02-01T01:48:18;4.60;99.90
8676;DHT22;4375;52.486;13.424;2023-02-01T01:50:54;4.60;99.90
8676;DHT22;4375;52.486;13.424;2023-02-01T01:53:26;4.60;99.90
8676;DHT22;4375;52.486;13.424;2023-02-01T01:55:53;4.60;99.90
8676;DHT22;4375;52.486;13.424;2023-02-01T01:58:25;4.60;99.90
8676;DHT22;4375;52.486;13.424;2023-02-01T02:00:52;4.60;99.90
8676;DHT22;4375;52.486;13.424;2023-02-01T02:03:24;4.60;99.90
8676;DHT22;4375;52.486;13.424;2023-02-01T02:05:53;4.60;99.90
8676;DHT22;4375;52.486;13.424;2023-02-01T02:08:20;4.60;99.90
8676;DHT22;4375;52.486;13.424;2023-02-01T02:10:49;4.70;99.90
8676;DHT22;4375;52.486;13.424;2023-02-01T02:21:50;4.70;99.90
8676;DHT22;4375;52.486;13.424;2023-02-01T02:27:28;4.70;99.90
8676;DHT22;4375;52.486;13.424;2023-02-01T02:39:07;4.70;99.90
8676;DHT22;4375;52.486;13.424;2023-02-01T02:44:51;4.70;99.90
8676;DHT22;4375;52.486;13.424;2023-02-01T02:50:44;4.70;99.90
8676;DHT22;4375;52.486;13.424;2023-02-01T02:53:35;4.70;99.90
8676;DHT22;4375;52.486;13.424;2023-02-01T02:56:23;4.70;99.90
8676;DHT22;4375;52.486;13.424;2023-02-01T02:59:12;4.70;99.90
8676;DHT22;4375;52.486;13.424;2023-02-01T03:01:58;4.70;99.90
8676;DHT22;4375;52.486;13.424;2023-02-01T03:04:42;4.70;99.90
8676;DHT22;4375;52.486;13.424;2023-02-01T03:13:24;4.70;99.90
8676;DHT22;4375;52.486;13.424;2023-02-01T03:23:53;4.90;99.90
8676;DHT22;4375;52.486;13.424;2023-02-01T03:26:25;4.90;99.90
8676;DHT22;4375;52.486;13.424;2023-02-01T03:28:57;4.90;99.90
8676;DHT22;4375;52.486;13.424;2023-02-01T03:31:27;4.90;99.90
8676;DHT22;4375;52.486;13.424;2023-02-01T03:33:53;4.90;99.90
8676;DHT22;4375;52.486;13.424;2023-02-01T03:36:57;4.80;99.90
8676;DHT22;4375;52.486;13.424;2023-02-01T03:39:21;4.80;99.90
8676;DHT22;4375;52.486;13.424;2023-02-01T03:41:53;4.80;99.90
8676;DHT22;4375;52.486;13.424;2023-02-01T03:45:18;4.90;99.90
8676;DHT22;4375;52.486;13.424;2023-02-01T03:47:27;4.80;99.90
8676;DHT22;4375;52.486;13.424;2023-02-01T03:50:18;4.80;99.90
8676;DHT22;4375;52.486;13.424;2023-02-01T03:55:26;4.80;99.90
8676;DHT22;4375;52.486;13.424;2023-02-01T03:58:01;4.80;99.90
8676;DHT22;4375;52.486;13.424;2023-02-01T04:00:28;4.80;99.90
8676;DHT22;4375;52.486;13.424;2023-02-01T04:02:54;4.90;99.90
8676;DHT22;4375;52.486;13.424;2023-02-01T04:05:20;4.80;99.90
8676;DHT22;4375;52.486;13.424;2023-02-01T04:07:45;5.00;99.90
8676;DHT22;4375;52.486;13.424;2023-02-01T04:10:11;5.00;99.90
8676;DHT22;4375;52.486;13.424;2023-02-01T04:12:37;5.00;99.90
8676;DHT22;4375;52.486;13.424;2023-02-01T04:15:03;5.00;99.90
8676;DHT22;4375;52.486;13.424;2023-02-01T04:17:30;5.10;99.90
8676;DHT22;4375;52.486;13.424;2023-02-01T04:19:55;5.20;99.90
8676;DHT22;4375;52.486;13.424;2023-02-01T04:22:21;5.20;99.90
8676;DHT22;4375;52.486;13.424;2023-02-01T04:24:47;5.20;99.90
8676;DHT22;4375;52.486;13.424;2023-02-01T04:27:13;5.20;99.90
8676;DHT22;4375;52.486;13.424;2023-02-01T04:29:39;5.20;99.90
8676;DHT22;4375;52.486;13.424;2023-02-01T04:32:05;5.20;99.90
8676;DHT22;4375;52.486;13.424;2023-02-01T04:34:31;5.20;99.90
8676;DHT22;4375;52.486;13.424;2023-02-01T04:36:57;5.30;99.90
8676;DHT22;4375;52.486;13.424;2023-02-01T04:39:22;5.20;99.90
8676;DHT22;4375;52.486;13.424;2023-02-01T04:41:48;5.30;99.90
8676;DHT22;4375;52.486;13.424;2023-02-01T04:44:17;5.30;99.90
8676;DHT22;4375;52.486;13.424;2023-02-01T04:46:44;5.30;99.90
8676;DHT22;4375;52.486;13.424;2023-02-01T04:49:11;5.30;99.90
8676;DHT22;4375;52.486;13.424;2023-02-01T04:51:37;5.40;99.90
8676;DHT22;4375;52.486;13.424;2023-02-01T04:54:04;5.40;99.90
8676;DHT22;4375;52.486;13.424;2023-02-01T04:56:30;5.40;99.90
8676;DHT22;4375;52.486;13.424;2023-02-01T04:58:56;5.50;99.90
8676;DHT22;4375;52.486;13.424;2023-02-01T05:01:22;5.40;99.90
8676;DHT22;4375;52.486;13.424;2023-02-01T05:03:50;5.40;99.90
8676;DHT22;4375;52.486;13.424;2023-02-01T05:06:16;5.50;99.90
8676;DHT22;4375;52.486;13.424;2023-02-01T05:08:41;5.40;99.90
8676;DHT22;4375;52.486;13.424;2023-02-01T05:11:07;5.50;99.90
8676;DHT22;4375;52.486;13.424;2023-02-01T05:13:52;5.50;99.90
8676;DHT22;4375;52.486;13.424;2023-02-01T05:16:18;5.50;99.90
8676;DHT22;4375;52.486;13.424;2023-02-01T05:18:44;5.50;99.90
8676;DHT22;4375;52.486;13.424;2023-02-01T05:21:10;5.50;99.90
8676;DHT22;4375;52.486;13.424;2023-02-01T05:23:35;5.50;99.90
8676;DHT22;4375;52.486;13.424;2023-02-01T05:26:21;5.60;99.90
8676;DHT22;4375;52.486;13.424;2023-02-01T05:28:46;5.50;99.90
8676;DHT22;4375;52.486;13.424;2023-02-01T05:31:12;5.50;99.90
8676;DHT22;4375;52.486;13.424;2023-02-01T05:33:38;5.50;99.90
8676;DHT22;4375;52.486;13.424;2023-02-01T05:36:03;5.60;99.90
8676;DHT22;4375;52.486;13.424;2023-02-01T05:38:29;5.60;99.90
8676;DHT22;4375;52.486;13.424;2023-02-01T05:40:55;5.60;99.90
8676;DHT22;4375;52.486;13.424;2023-02-01T05:43:21;5.60;99.90
8676;DHT22;4375;52.486;13.424;2023-02-01T05:45:47;5.60;99.90
8676;DHT22;4375;52.486;13.424;2023-02-01T05:48:13;5.60;99.90
8676;DHT22;4375;52.486;13.424;2023-02-01T05:50:38;5.60;99.90
8676;DHT22;4375;52.486;13.424;2023-02-01T05:53:04;5.60;99.90
8676;DHT22;4375;52.486;13.424;2023-02-01T05:55:29;5.60;99.90
8676;DHT22;4375;52.486;13.424;2023-02-01T05:57:55;5.60;99.90
8676;DHT22;4375;52.486;13.424;2023-02-01T06:00:21;5.60;99.90
8676;DHT22;4375;52.486;13.424;2023-02-01T06:02:47;5.60;99.90
8676;DHT22;4375;52.486;13.424;2023-02-01T06:05:12;5.60;99.90
8676;DHT22;4375;52.486;13.424;2023-02-01T06:07:38;5.50;99.90
8676;DHT22;4375;52.486;13.424;2023-02-01T06:10:04;5.50;99.90
8676;DHT22;4375;52.486;13.424;2023-02-01T06:12:30;5.60;99.90
8676;DHT22;4375;52.486;13.424;2023-02-01T06:14:55;5.60;99.90
8676;DHT22;4375;52.486;13.424;2023-02-01T06:17:21;5.60;99.90
8676;DHT22;4375;52.486;13.424;2023-02-01T06:19:46;5.60;99.90
8676;DHT22;4375;52.486;13.424;2023-02-01T06:22:14;5.60;99.90
8676;DHT22;4375;52.486;13.424;2023-02-01T06:24:39;5.50;99.90
8676;DHT22;4375;52.486;13.424;2023-02-01T06:27:06;5.40;99.90
8676;DHT22;4375;52.486;13.424;2023-02-01T06:29:32;5.40;99.90
8676;DHT22;4375;52.486;13.424;2023-02-01T06:31:58;5.40;99.90
8676;DHT22;4375;52.486;13.424;2023-02-01T06:34:24;5.30;99.90
8676;DHT22;4375;52.486;13.424;2023-02-01T06:36:50;5.30;99.90
8676;DHT22;4375;52.486;13.424;2023-02-01T06:39:15;5.30;99.90
8676;DHT22;4375;52.486;13.424;2023-02-01T06:41:42;5.30;99.90
8676;DHT22;4375;52.486;13.424;2023-02-01T06:44:10;5.30;99.90
8676;DHT22;4375;52.486;13.424;2023-02-01T06:46:36;5.30;99.90
8676;DHT22;4375;52.486;13.424;2023-02-01T06:49:02;5.30;99.90
8676;DHT22;4375;52.486;13.424;2023-02-01T06:51:28;5.30;99.90
8676;DHT22;4375;52.486;13.424;2023-02-01T06:53:55;5.30;99.90
8676;DHT22;4375;52.486;13.424;2023-02-01T06:56:21;5.30;99.90
8676;DHT22;4375;52.486;13.424;2023-02-01T06:58:47;5.30;99.90
8676;DHT22;4375;52.486;13.424;2023-02-01T07:01:13;5.40;99.90
8676;DHT22;4375;52.486;13.424;2023-02-01T07:03:39;5.30;99.90
8676;DHT22;4375;52.486;13.424;2023-02-01T07:06:05;5.30;99.90
8676;DHT22;4375;52.486;13.424;2023-02-01T07:08:33;5.30;99.90
8676;DHT22;4375;52.486;13.424;2023-02-01T07:11:04;5.40;99.90
8676;DHT22;4375;52.486;13.424;2023-02-01T07:13:30;5.40;99.90
8676;DHT22;4375;52.486;13.424;2023-02-01T07:16:01;5.40;99.90
8676;DHT22;4375;52.486;13.424;2023-02-01T07:18:29;5.40;99.90
8676;DHT22;4375;52.486;13.424;2023-02-01T07:20:55;5.40;99.90
8676;DHT22;4375;52.486;13.424;2023-02-01T07:23:21;5.40;99.90
8676;DHT22;4375;52.486;13.424;2023-02-01T07:25:47;5.40;99.90
8676;DHT22;4375;52.486;13.424;2023-02-01T07:28:13;5.30;99.90
8676;DHT22;4375;52.486;13.424;2023-02-01T07:30:39;5.30;99.90
8676;DHT22;4375;52.486;13.424;2023-02-01T07:33:06;5.40;99.90
8676;DHT22;4375;52.486;13.424;2023-02-01T07:35:32;5.40;99.90
8676;DHT22;4375;52.486;13.424;2023-02-01T07:37:58;5.30;99.90
8676;DHT22;4375;52.486;13.424;2023-02-01T07:40:24;5.40;99.90
8676;DHT22;4375;52.486;13.424;2023-02-01T07:42:57;5.40;99.90
8676;DHT22;4375;52.486;13.424;2023-02-01T07:45:23;5.50;99.90
8676;DHT22;4375;52.486;13.424;2023-02-01T07:47:51;5.50;99.90
8676;DHT22;4375;52.486;13.424;2023-02-01T07:50:17;5.50;99.90
8676;DHT22;4375;52.486;13.424;2023-02-01T07:52:43;5.40;99.90
8676;DHT22;4375;52.486;13.424;2023-02-01T07:55:09;5.40;99.90
8676;DHT22;4375;52.486;13.424;2023-02-01T07:57:34;5.30;99.90
8676;DHT22;4375;52.486;13.424;2023-02-01T08:00:00;5.20;99.90
8676;DHT22;4375;52.486;13.424;2023-02-01T08:03:01;5.00;99.90
8676;DHT22;4375;52.486;13.424;2023-02-01T08:05:28;5.00;99.90
8676;DHT22;4375;52.486;13.424;2023-02-01T08:07:54;4.90;99.90
8676;DHT22;4375;52.486;13.424;2023-02-01T08:10:19;4.80;99.90
8676;DHT22;4375;52.486;13.424;2023-02-01T08:12:45;4.70;99.90
8676;DHT22;4375;52.486;13.424;2023-02-01T08:15:17;4.70;99.90
8676;DHT22;4375;52.486;13.424;2023-02-01T08:17:47;4.60;99.90
8676;DHT22;4375;52.486;13.424;2023-02-01T08:20:13;4.60;99.90
8676;DHT22;4375;52.486;13.424;2023-02-01T08:22:39;4.50;99.90
8676;DHT22;4375;52.486;13.424;2023-02-01T08:25:05;4.50;99.90
8676;DHT22;4375;52.486;13.424;2023-02-01T08:27:33;4.60;99.90
8676;DHT22;4375;52.486;13.424;2023-02-01T08:29:58;4.50;99.90
8676;DHT22;4375;52.486;13.424;2023-02-01T08:32:25;4.60;99.90
8676;DHT22;4375;52.486;13.424;2023-02-01T08:34:50;4.60;99.90
8676;DHT22;4375;52.486;13.424;2023-02-01T08:37:16;4.60;99.90
8676;DHT22;4375;52.486;13.424;2023-02-01T08:39:42;4.70;99.90
8676;DHT22;4375;52.486;13.424;2023-02-01T08:42:11;4.60;99.90
8676;DHT22;4375;52.486;13.424;2023-02-01T08:45:15;4.60;99.90
8676;DHT22;4375;52.486;13.424;2023-02-01T08:47:40;4.70;99.90
8676;DHT22;4375;52.486;13.424;2023-02-01T08:50:07;4.60;99.90
8676;DHT22;4375;52.486;13.424;2023-02-01T08:52:32;4.70;99.90
8676;DHT22;4375;52.486;13.424;2023-02-01T08:54:58;4.70;99.90
8676;DHT22;4375;52.486;13.424;2023-02-01T08:57:24;4.80;99.90
8676;DHT22;4375;52.486;13.424;2023-02-01T08:59:49;4.90;99.90
8676;DHT22;4375;52.486;13.424;2023-02-01T09:02:16;4.80;99.90
8676;DHT22;4375;52.486;13.424;2023-02-01T09:04:42;4.80;99.90
8676;DHT22;4375;52.486;13.424;2023-02-01T09:07:09;4.80;99.90
8676;DHT22;4375;52.486;13.424;2023-02-01T09:09:35;4.80;99.90
8676;DHT22;4375;52.486;13.424;2023-02-01T09:12:02;4.80;99.90
8676;DHT22;4375;52.486;13.424;2023-02-01T09:14:28;4.80;99.90
8676;DHT22;4375;52.486;13.424;2023-02-01T09:16:53;4.80;99.90
8676;DHT22;4375;52.486;13.424;2023-02-01T09:19:19;4.80;99.90
8676;DHT22;4375;52.486;13.424;2023-02-01T09:21:45;4.80;99.90
8676;DHT22;4375;52.486;13.424;2023-02-01T09:24:11;4.90;99.90
8676;DHT22;4375;52.486;13.424;2023-02-01T09:26:37;5.00;99.90
8676;DHT22;4375;52.486;13.424;2023-02-01T09:29:03;5.10;99.90
8676;DHT22;4375;52.486;13.424;2023-02-01T09:31:29;5.20;99.90
8676;DHT22;4375;52.486;13.424;2023-02-01T09:33:56;5.10;99.90
8676;DHT22;4375;52.486;13.424;2023-02-01T09:36:21;5.20;99.90
8676;DHT22;4375;52.486;13.424;2023-02-01T09:38:48;5.20;99.90
8676;DHT22;4375;52.486;13.424;2023-02-01T09:41:41;5.20;99.90
8676;DHT22;4375;52.486;13.424;2023-02-01T09:47:12;5.30;99.90
8676;DHT22;4375;52.486;13.424;2023-02-01T09:52:17;5.30;99.90
8676;DHT22;4375;52.486;13.424;2023-02-01T09:54:49;5.30;99.90
8676;DHT22;4375;52.486;13.424;2023-02-01T09:57:24;5.30;99.90
8676;DHT22;4375;52.486;13.424;2023-02-01T10:00:00;5.30;99.90
8676;DHT22;4375;52.486;13.424;2023-02-01T10:02:28;5.30;99.90
8676;DHT22;4375;52.486;13.424;2023-02-01T10:04:58;5.30;99.90
8676;DHT22;4375;52.486;13.424;2023-02-01T10:08:01;5.30;99.90
8676;DHT22;4375;52.486;13.424;2023-02-01T10:10:49;5.30;99.90
8676;DHT22;4375;52.486;13.424;2023-02-01T10:27:12;5.30;99.90
8676;DHT22;4375;52.486;13.424;2023-02-01T10:29:41;5.30;99.90
8676;DHT22;4375;52.486;13.424;2023-02-01T10:32:14;5.30;99.90
8676;DHT22;4375;52.486;13.424;2023-02-01T10:34:41;5.30;99.90
8676;DHT22;4375;52.486;13.424;2023-02-01T10:39:46;5.40;99.90
8676;DHT22;4375;52.486;13.424;2023-02-01T10:42:13;5.50;99.90
8676;DHT22;4375;52.486;13.424;2023-02-01T10:44:42;5.50;99.90
8676;DHT22;4375;52.486;13.424;2023-02-01T10:47:10;5.50;99.90
8676;DHT22;4375;52.486;13.424;2023-02-01T10:52:21;5.60;99.90
8676;DHT22;4375;52.486;13.424;2023-02-01T10:54:48;5.30;99.90
8676;DHT22;4375;52.486;13.424;2023-02-01T10:57:23;5.20;99.90
8676;DHT22;4375;52.486;13.424;2023-02-01T10:59:54;5.30;99.90
8676;DHT22;4375;52.486;13.424;2023-02-01T11:02:30;5.30;99.90
8676;DHT22;4375;52.486;13.424;2023-02-01T11:05:03;5.30;99.90
8676;DHT22;4375;52.486;13.424;2023-02-01T11:07:31;5.30;99.90
8676;DHT22;4375;52.486;13.424;2023-02-01T11:09:57;5.30;99.90
8676;DHT22;4375;52.486;13.424;2023-02-01T11:12:28;5.30;99.90
8676;DHT22;4375;52.486;13.424;2023-02-01T11:15:20;5.40;99.90
8676;DHT22;4375;52.486;13.424;2023-02-01T11:17:48;5.60;99.90
8676;DHT22;4375;52.486;13.424;2023-02-01T11:20:38;5.60;99.90
8676;DHT22;4375;52.486;13.424;2023-02-01T11:23:10;5.70;99.90
8676;DHT22;4375;52.486;13.424;2023-02-01T11:25:38;5.70;99.90
8676;DHT22;4375;52.486;13.424;2023-02-01T11:28:05;5.80;99.90
8676;DHT22;4375;52.486;13.424;2023-02-01T11:31:04;5.80;99.90
8676;DHT22;4375;52.486;13.424;2023-02-01T11:33:36;5.80;99.90
8676;DHT22;4375;52.486;13.424;2023-02-01T11:36:14;6.00;99.90
8676;DHT22;4375;52.486;13.424;2023-02-01T11:38:50;6.10;99.90
8676;DHT22;4375;52.486;13.424;2023-02-01T11:41:28;6.20;99.90
8676;DHT22;4375;52.486;13.424;2023-02-01T11:44:15;6.40;99.90
8676;DHT22;4375;52.486;13.424;2023-02-01T11:46:42;6.40;99.90
8676;DHT22;4375;52.486;13.424;2023-02-01T11:49:34;6.40;99.90
8676;DHT22;4375;52.486;13.424;2023-02-01T12:04:32;7.00;99.90
8676;DHT22;4375;52.486;13.424;2023-02-01T12:24:42;7.10;99.90
8676;DHT22;4375;52.486;13.424;2023-02-01T12:30:02;7.00;99.90
8676;DHT22;4375;52.486;13.424;2023-02-01T12:38:10;6.90;99.90
8676;DHT22;4375;52.486;13.424;2023-02-01T12:43:39;6.80;99.90
8676;DHT22;4375;52.486;13.424;2023-02-01T12:46:16;6.80;99.90
8676;DHT22;4375;52.486;13.424;2023-02-01T12:51:29;6.70;99.90
8676;DHT22;4375;52.486;13.424;2023-02-01T12:54:23;6.80;99.90
8676;DHT22;4375;52.486;13.424;2023-02-01T12:56:59;6.90;99.90
8676;DHT22;4375;52.486;13.424;2023-02-01T13:02:16;7.00;99.90
8676;DHT22;4375;52.486;13.424;2023-02-01T13:07:41;7.00;99.90
8676;DHT22;4375;52.486;13.424;2023-02-01T13:13:02;7.00;99.90
8676;DHT22;4375;52.486;13.424;2023-02-01T13:15:33;7.00;99.90
8676;DHT22;4375;52.486;13.424;2023-02-01T13:18:03;7.00;99.90
8676;DHT22;4375;52.486;13.424;2023-02-01T13:23:29;6.90;99.90
8676;DHT22;4375;52.486;13.424;2023-02-01T13:25:55;6.80;99.90
8676;DHT22;4375;52.486;13.424;2023-02-01T13:28:39;6.80;99.90
8676;DHT22;4375;52.486;13.424;2023-02-01T13:33:52;6.80;99.90
8676;DHT22;4375;52.486;13.424;2023-02-01T13:41:57;6.90;99.90
8676;DHT22;4375;52.486;13.424;2023-02-01T13:44:49;6.90;99.90
8676;DHT22;4375;52.486;13.424;2023-02-01T13:47:54;6.80;99.90
8676;DHT22;4375;52.486;13.424;2023-02-01T13:53:11;7.00;99.90
8676;DHT22;4375;52.486;13.424;2023-02-01T13:55:43;7.00;99.90
8676;DHT22;4375;52.486;13.424;2023-02-01T14:00:44;6.90;99.90
8676;DHT22;4375;52.486;13.424;2023-02-01T14:03:13;7.00;99.90
8676;DHT22;4375;52.486;13.424;2023-02-01T14:08:11;6.90;99.90
8676;DHT22;4375;52.486;13.424;2023-02-01T14:13:38;6.90;99.90
8676;DHT22;4375;52.486;13.424;2023-02-01T14:21:34;6.90;99.90
8676;DHT22;4375;52.486;13.424;2023-02-01T14:26:49;6.80;99.90
8676;DHT22;4375;52.486;13.424;2023-02-01T14:29:23;6.70;99.90
8676;DHT22;4375;52.486;13.424;2023-02-01T14:32:22;6.60;99.90
8676;DHT22;4375;52.486;13.424;2023-02-01T14:34:56;6.60;99.90
8676;DHT22;4375;52.486;13.424;2023-02-01T14:37:29;6.60;99.90
8676;DHT22;4375;52.486;13.424;2023-02-01T14:42:37;6.70;99.90
8676;DHT22;4375;52.486;13.424;2023-02-01T14:50:40;6.70;99.90
8676;DHT22;4375;52.486;13.424;2023-02-01T14:58:29;6.80;99.90
8676;DHT22;4375;52.486;13.424;2023-02-01T15:01:00;6.70;99.90
8676;DHT22;4375;52.486;13.424;2023-02-01T15:05:57;6.70;99.90
8676;DHT22;4375;52.486;13.424;2023-02-01T15:08:31;6.70;99.90
8676;DHT22;4375;52.486;13.424;2023-02-01T15:11:01;6.70;99.90
8676;DHT22;4375;52.486;13.424;2023-02-01T15:13:28;6.70;99.90
8676;DHT22;4375;52.486;13.424;2023-02-01T15:16:24;6.50;99.90
8676;DHT22;4375;52.486;13.424;2023-02-01T15:18:50;6.30;99.90
8676;DHT22;4375;52.486;13.424;2023-02-01T15:21:21;6.00;99.90
8676;DHT22;4375;52.486;13.424;2023-02-01T15:23:47;5.90;99.90
8676;DHT22;4375;52.486;13.424;2023-02-01T15:26:28;5.80;99.90
8676;DHT22;4375;52.486;13.424;2023-02-01T15:28:56;5.70;99.90
8676;DHT22;4375;52.486;13.424;2023-02-01T15:31:42;5.60;99.90
8676;DHT22;4375;52.486;13.424;2023-02-01T15:34:08;5.40;99.90
8676;DHT22;4375;52.486;13.424;2023-02-01T15:36:34;5.20;99.90
8676;DHT22;4375;52.486;13.424;2023-02-01T15:39:21;5.20;99.90
8676;DHT22;4375;52.486;13.424;2023-02-01T15:41:56;5.20;99.90
8676;DHT22;4375;52.486;13.424;2023-02-01T15:44:37;5.10;99.90
8676;DHT22;4375;52.486;13.424;2023-02-01T15:47:10;5.10;99.90
8676;DHT22;4375;52.486;13.424;2023-02-01T15:49:40;5.10;99.90
8676;DHT22;4375;52.486;13.424;2023-02-01T15:52:26;5.10;99.90
8676;DHT22;4375;52.486;13.424;2023-02-01T15:54:56;5.00;99.90
8676;DHT22;4375;52.486;13.424;2023-02-01T15:57:30;4.80;99.90
8676;DHT22;4375;52.486;13.424;2023-02-01T15:59:59;4.70;99.90
8676;DHT22;4375;52.486;13.424;2023-02-01T16:02:59;4.50;99.90
8676;DHT22;4375;52.486;13.424;2023-02-01T16:05:41;4.60;99.90
8676;DHT22;4375;52.486;13.424;2023-02-01T16:08:14;4.60;99.90
8676;DHT22;4375;52.486;13.424;2023-02-01T16:10:46;4.50;99.90
8676;DHT22;4375;52.486;13.424;2023-02-01T16:13:13;4.40;99.90
8676;DHT22;4375;52.486;13.424;2023-02-01T16:15:39;4.30;99.90
8676;DHT22;4375;52.486;13.424;2023-02-01T16:18:05;4.20;99.90
8676;DHT22;4375;52.486;13.424;2023-02-01T16:20:33;4.10;99.90
8676;DHT22;4375;52.486;13.424;2023-02-01T16:23:01;4.10;99.90
8676;DHT22;4375;52.486;13.424;2023-02-01T16:25:27;3.90;99.90
8676;DHT22;4375;52.486;13.424;2023-02-01T16:27:53;3.90;99.90
8676;DHT22;4375;52.486;13.424;2023-02-01T16:30:18;3.70;99.90
8676;DHT22;4375;52.486;13.424;2023-02-01T16:32:49;3.70;99.90
8676;DHT22;4375;52.486;13.424;2023-02-01T16:35:35;3.90;99.90
8676;DHT22;4375;52.486;13.424;2023-02-01T16:38:05;3.90;99.90
8676;DHT22;4375;52.486;13.424;2023-02-01T16:40:37;3.90;99.90
8676;DHT22;4375;52.486;13.424;2023-02-01T16:45:40;3.90;99.90
8676;DHT22;4375;52.486;13.424;2023-02-01T16:48:07;3.90;99.90
8676;DHT22;4375;52.486;13.424;2023-02-01T16:50:33;4.00;99.90
8676;DHT22;4375;52.486;13.424;2023-02-01T16:52:59;4.00;99.90
8676;DHT22;4375;52.486;13.424;2023-02-01T16:55:26;4.00;99.90
8676;DHT22;4375;52.486;13.424;2023-02-01T16:57:53;4.00;99.90
8676;DHT22;4375;52.486;13.424;2023-02-01T17:00:18;3.90;99.90
8676;DHT22;4375;52.486;13.424;2023-02-01T17:02:45;4.00;99.90
8676;DHT22;4375;52.486;13.424;2023-02-01T17:05:11;4.00;99.90
8676;DHT22;4375;52.486;13.424;2023-02-01T17:07:38;4.10;99.90
8676;DHT22;4375;52.486;13.424;2023-02-01T17:10:05;4.10;99.90
8676;DHT22;4375;52.486;13.424;2023-02-01T17:12:32;4.10;99.90
8676;DHT22;4375;52.486;13.424;2023-02-01T17:14:59;4.10;99.90
8676;DHT22;4375;52.486;13.424;2023-02-01T17:17:34;4.10;99.90
8676;DHT22;4375;52.486;13.424;2023-02-01T17:20:00;4.10;99.90
8676;DHT22;4375;52.486;13.424;2023-02-01T17:22:26;4.00;99.90
8676;DHT22;4375;52.486;13.424;2023-02-01T17:24:52;4.10;99.90
8676;DHT22;4375;52.486;13.424;2023-02-01T17:27:18;4.00;99.90
8676;DHT22;4375;52.486;13.424;2023-02-01T17:29:44;4.10;99.90
8676;DHT22;4375;52.486;13.424;2023-02-01T17:32:20;4.20;99.90
8676;DHT22;4375;52.486;13.424;2023-02-01T17:34:46;4.30;99.90
8676;DHT22;4375;52.486;13.424;2023-02-01T17:37:33;4.30;99.90
8676;DHT22;4375;52.486;13.424;2023-02-01T17:39:59;4.30;99.90
8676;DHT22;4375;52.486;13.424;2023-02-01T17:42:27;4.40;99.90
8676;DHT22;4375;52.486;13.424;2023-02-01T17:44:59;4.40;99.90
8676;DHT22;4375;52.486;13.424;2023-02-01T17:47:25;4.40;99.90
8676;DHT22;4375;52.486;13.424;2023-02-01T17:49:50;4.50;99.90
8676;DHT22;4375;52.486;13.424;2023-02-01T17:52:22;4.40;99.90
8676;DHT22;4375;52.486;13.424;2023-02-01T17:54:48;4.50;99.90
8676;DHT22;4375;52.486;13.424;2023-02-01T17:57:16;4.50;99.90
8676;DHT22;4375;52.486;13.424;2023-02-01T17:59:42;4.60;99.90
8676;DHT22;4375;52.486;13.424;2023-02-01T18:02:24;4.60;99.90
8676;DHT22;4375;52.486;13.424;2023-02-01T18:04:50;4.70;99.90
8676;DHT22;4375;52.486;13.424;2023-02-01T18:07:16;4.70;99.90
8676;DHT22;4375;52.486;13.424;2023-02-01T18:09:42;4.60;99.90
8676;DHT22;4375;52.486;13.424;2023-02-01T18:12:28;4.70;99.90
8676;DHT22;4375;52.486;13.424;2023-02-01T18:14:55;4.80;99.90
8676;DHT22;4375;52.486;13.424;2023-02-01T18:17:22;4.70;99.90
8676;DHT22;4375;52.486;13.424;2023-02-01T18:19:48;4.70;99.90
8676;DHT22;4375;52.486;13.424;2023-02-01T18:22:22;4.70;99.90
8676;DHT22;4375;52.486;13.424;2023-02-01T18:24:48;4.80;99.90
8676;DHT22;4375;52.486;13.424;2023-02-01T18:27:14;4.80;99.90
8676;DHT22;4375;52.486;13.424;2023-02-01T18:29:40;4.70;99.90
8676;DHT22;4375;52.486;13.424;2023-02-01T18:32:05;4.70;99.90
8676;DHT22;4375;52.486;13.424;2023-02-01T18:34:31;4.80;99.90
8676;DHT22;4375;52.486;13.424;2023-02-01T18:36:56;4.80;99.90
8676;DHT22;4375;52.486;13.424;2023-02-01T18:39:22;4.80;99.90
8676;DHT22;4375;52.486;13.424;2023-02-01T18:41:48;4.80;99.90
8676;DHT22;4375;52.486;13.424;2023-02-01T18:44:16;4.90;99.90
8676;DHT22;4375;52.486;13.424;2023-02-01T18:46:42;4.90;99.90
8676;DHT22;4375;52.486;13.424;2023-02-01T18:49:08;4.90;99.90
8676;DHT22;4375;52.486;13.424;2023-02-01T18:51:34;5.00;99.90
8676;DHT22;4375;52.486;13.424;2023-02-01T18:54:00;5.10;99.90
8676;DHT22;4375;52.486;13.424;2023-02-01T18:56:25;5.10;99.90
8676;DHT22;4375;52.486;13.424;2023-02-01T18:58:51;5.00;99.90
8676;DHT22;4375;52.486;13.424;2023-02-01T19:01:19;5.00;99.90
8676;DHT22;4375;52.486;13.424;2023-02-01T19:03:49;5.00;99.90
8676;DHT22;4375;52.486;13.424;2023-02-01T19:06:15;5.00;99.90
8676;DHT22;4375;52.486;13.424;2023-02-01T19:08:44;5.00;99.90
8676;DHT22;4375;52.486;13.424;2023-02-01T19:11:10;5.10;99.90